createdAt,value
2023-08-08T00:00:14.597Z,2.63
2023-08-08T00:02:44.335Z,2.40
2023-08-08T00:05:12.675Z,2.30
2023-08-08T00:07:41.003Z,1.63
2023-08-08T00:10:10.351Z,2.10
2023-08-08T00:12:38.568Z,1.17
2023-08-08T00:15:08.268Z,1.80
2023-08-08T00:17:36.686Z,1.97
2023-08-08T00:20:08.404Z,1.80
2023-08-08T00:22:36.589Z,2.87
2023-08-08T00:25:05.237Z,2.80
2023-08-08T00:27:33.775Z,1.83
2023-08-08T00:30:02.951Z,2.07
2023-08-08T00:32:31.397Z,1.27
2023-08-08T00:34:59.730Z,2.00
2023-08-08T00:37:29.303Z,1.90
2023-08-08T00:39:57.660Z,1.70
2023-08-08T00:42:25.979Z,2.07
2023-08-08T00:44:54.368Z,2.20
2023-08-08T00:47:22.602Z,2.77
2023-08-08T00:49:50.821Z,1.87
2023-08-08T00:52:19.020Z,2.40
2023-08-08T00:54:48.748Z,1.90
2023-08-08T00:57:17.175Z,2.90
2023-08-08T00:59:45.625Z,2.13
2023-08-08T01:02:14.257Z,2.47
2023-08-08T01:04:43.264Z,1.83
2023-08-08T01:07:18.717Z,1.83
2023-08-08T01:09:55.431Z,2.60
2023-08-08T01:12:25.110Z,2.30
2023-08-08T01:14:53.583Z,2.70
2023-08-08T01:17:23.659Z,1.63
2023-08-08T01:19:52.548Z,1.97
2023-08-08T01:22:27.617Z,1.80
2023-08-08T01:24:58.161Z,1.60
2023-08-08T01:27:26.505Z,2.03
2023-08-08T01:29:55.465Z,2.20
2023-08-08T01:32:23.710Z,2.30
2023-08-08T01:34:56.197Z,1.80
2023-08-08T01:37:31.377Z,1.87
2023-08-08T01:40:02.889Z,1.60
2023-08-08T01:42:31.865Z,0.83
2023-08-08T01:45:00.856Z,1.80
2023-08-08T01:47:29.120Z,1.80
2023-08-08T01:49:57.532Z,1.63
2023-08-08T01:52:26.150Z,1.27
2023-08-08T01:54:54.334Z,1.90
2023-08-08T01:57:23.898Z,1.70
2023-08-08T01:59:52.250Z,2.40
2023-08-08T02:02:20.446Z,2.33
2023-08-08T02:04:48.711Z,2.63
2023-08-08T02:07:18.406Z,2.63
2023-08-08T02:09:47.305Z,2.50
2023-08-08T02:12:15.425Z,1.80
2023-08-08T02:14:44.928Z,1.23
2023-08-08T02:17:14.194Z,2.00
2023-08-08T02:19:42.328Z,2.50
2023-08-08T02:22:11.675Z,2.03
2023-08-08T02:24:40.110Z,2.00
2023-08-08T02:27:08.741Z,2.00
2023-08-08T02:29:36.841Z,2.17
2023-08-08T02:32:07.466Z,1.87
2023-08-08T02:34:35.651Z,2.00
2023-08-08T02:37:03.815Z,2.33
2023-08-08T02:39:32.797Z,1.50
2023-08-08T02:42:01.236Z,1.47
2023-08-08T02:44:30.339Z,2.33
2023-08-08T02:46:58.724Z,1.77
2023-08-08T02:49:28.245Z,1.80
2023-08-08T02:51:56.383Z,1.50
2023-08-08T02:54:24.807Z,2.73
2023-08-08T02:56:55.820Z,1.53
2023-08-08T02:59:24.068Z,2.33
2023-08-08T03:01:52.422Z,1.97
2023-08-08T03:04:20.757Z,1.60
2023-08-08T03:06:50.387Z,2.60
2023-08-08T03:09:18.735Z,2.07
2023-08-08T03:11:46.864Z,2.33
2023-08-08T03:14:15.295Z,2.20
2023-08-08T03:16:43.826Z,3.23
2023-08-08T03:19:12.720Z,3.40
2023-08-08T03:21:40.880Z,2.27
2023-08-08T03:24:10.574Z,2.40
2023-08-08T03:26:38.751Z,2.97
2023-08-08T03:29:10.978Z,2.30
2023-08-08T03:31:39.585Z,2.73
2023-08-08T03:34:07.780Z,2.20
2023-08-08T03:36:36.344Z,2.10
2023-08-08T03:39:05.159Z,2.87
2023-08-08T03:41:34.647Z,2.40
2023-08-08T03:44:04.120Z,3.50
2023-08-08T03:46:33.007Z,2.73
2023-08-08T03:49:01.428Z,2.47
2023-08-08T03:51:29.579Z,2.80
2023-08-08T03:53:57.998Z,2.83
2023-08-08T03:56:26.348Z,3.10
2023-08-08T03:58:55.817Z,2.50
2023-08-08T04:01:24.376Z,2.60
2023-08-08T04:03:52.601Z,2.00
2023-08-08T04:06:20.746Z,2.67
2023-08-08T04:08:49.104Z,1.60
2023-08-08T04:11:17.495Z,2.87
2023-08-08T04:13:45.769Z,2.50
2023-08-08T04:16:17.459Z,2.87
2023-08-08T04:18:45.630Z,2.87
2023-08-08T04:21:13.771Z,1.93
2023-08-08T04:23:42.081Z,2.00
2023-08-08T04:26:10.173Z,1.90
2023-08-08T04:28:38.898Z,2.33
2023-08-08T04:31:07.258Z,2.13
2023-08-08T04:33:36.915Z,2.20
2023-08-08T04:36:05.294Z,2.47
2023-08-08T04:38:33.502Z,2.00
2023-08-08T04:41:02.687Z,2.70
2023-08-08T04:43:30.987Z,2.27
2023-08-08T04:45:59.554Z,1.83
2023-08-08T04:48:28.062Z,1.70
2023-08-08T04:50:57.688Z,2.50
2023-08-08T04:53:25.803Z,1.90
2023-08-08T04:55:55.663Z,1.93
2023-08-08T04:58:23.853Z,2.80
2023-08-08T05:00:52.928Z,2.77
2023-08-08T05:03:21.305Z,1.90
2023-08-08T05:05:49.682Z,1.60
2023-08-08T05:08:19.490Z,1.20
2023-08-08T05:10:47.613Z,1.60
2023-08-08T05:13:15.880Z,1.60
2023-08-08T05:15:44.075Z,2.30
2023-08-08T05:18:12.264Z,2.00
2023-08-08T05:20:41.133Z,1.27
2023-08-08T05:23:09.488Z,1.90
2023-08-08T05:25:39.079Z,2.10
2023-08-08T05:28:08.009Z,1.80
2023-08-08T05:30:36.455Z,1.53
2023-08-08T05:33:04.756Z,1.40
2023-08-08T05:35:33.107Z,1.50
2023-08-08T05:38:01.598Z,1.67
2023-08-08T05:40:30.007Z,1.90
2023-08-08T05:42:59.538Z,1.63
2023-08-08T05:45:27.819Z,1.70
2023-08-08T05:47:56.735Z,1.40
2023-08-08T05:50:25.117Z,1.63
2023-08-08T05:52:53.696Z,2.10
2023-08-08T05:55:22.033Z,2.40
2023-08-08T05:57:50.182Z,0.97
2023-08-08T06:00:20.795Z,1.40
2023-08-08T06:02:48.924Z,1.40
2023-08-08T06:05:19.038Z,1.60
2023-08-08T06:07:47.394Z,1.40
2023-08-08T06:10:16.789Z,1.40
2023-08-08T06:12:45.215Z,1.33
2023-08-08T06:15:15.872Z,1.70
2023-08-08T06:17:45.524Z,1.40
2023-08-08T06:20:13.951Z,2.40
2023-08-08T06:22:43.001Z,2.20
2023-08-08T06:25:13.357Z,1.57
2023-08-08T06:27:41.604Z,1.50
2023-08-08T06:30:10.706Z,1.43
2023-08-08T06:32:39.280Z,1.00
2023-08-08T06:35:10.740Z,2.07
2023-08-08T06:37:40.374Z,1.70
2023-08-08T06:40:11.162Z,1.47
2023-08-08T06:42:39.391Z,2.10
2023-08-08T06:45:08.689Z,2.53
2023-08-08T06:47:37.035Z,1.50
2023-08-08T06:50:06.430Z,1.47
2023-08-08T06:52:36.033Z,1.43
2023-08-08T06:55:04.747Z,1.47
2023-08-08T06:57:35.930Z,1.60
2023-08-08T07:00:07.276Z,2.20
2023-08-08T07:02:35.612Z,2.17
2023-08-08T07:05:05.108Z,3.10
2023-08-08T07:07:34.503Z,1.40
2023-08-08T07:10:08.256Z,1.83
2023-08-08T07:12:36.944Z,1.80
2023-08-08T07:15:05.824Z,1.30
2023-08-08T07:17:33.931Z,1.50
2023-08-08T07:20:02.306Z,1.87
2023-08-08T07:22:30.559Z,2.80
2023-08-08T07:24:58.912Z,2.40
2023-08-08T07:27:29.258Z,3.33
2023-08-08T07:29:57.687Z,3.33
2023-08-08T07:32:25.814Z,4.70
2023-08-08T07:34:54.046Z,3.87
2023-08-08T07:37:22.324Z,3.90
2023-08-08T07:39:53.552Z,3.57
2023-08-08T07:42:21.836Z,4.70
2023-08-08T07:44:51.689Z,3.87
2023-08-08T07:47:20.276Z,3.17
2023-08-08T07:49:51.662Z,3.83
2023-08-08T07:52:19.817Z,2.50
2023-08-08T07:54:48.097Z,2.43
2023-08-08T07:57:16.356Z,2.80
2023-08-08T07:59:44.955Z,2.53
2023-08-08T08:02:14.593Z,2.40
2023-08-08T08:04:42.853Z,2.50
2023-08-08T08:07:15.713Z,2.60
2023-08-08T08:09:44.655Z,2.40
2023-08-08T08:12:13.065Z,3.50
2023-08-08T08:14:41.294Z,3.50
2023-08-08T08:17:10.252Z,3.60
2023-08-08T08:19:40.063Z,3.33
2023-08-08T08:22:08.243Z,2.23
2023-08-08T08:24:36.913Z,2.43
2023-08-08T08:27:05.725Z,2.27
2023-08-08T08:29:34.248Z,3.20
2023-08-08T08:32:03.456Z,1.70
2023-08-08T08:34:32.086Z,2.50
2023-08-08T08:37:04.090Z,1.83
2023-08-08T08:39:36.457Z,2.13
2023-08-08T08:42:09.289Z,2.00
2023-08-08T08:44:40.583Z,1.53
2023-08-08T08:47:12.657Z,2.80
2023-08-08T08:49:41.953Z,2.97
2023-08-08T08:52:11.896Z,2.80
2023-08-08T08:54:40.818Z,2.07
2023-08-08T08:57:10.780Z,2.33
2023-08-08T08:59:39.003Z,1.97
2023-08-08T09:02:08.128Z,2.67
2023-08-08T09:04:37.190Z,2.50
2023-08-08T09:07:08.689Z,3.27
2023-08-08T09:09:38.871Z,1.67
2023-08-08T09:12:10.843Z,2.70
2023-08-08T09:14:42.684Z,1.37
2023-08-08T09:17:14.748Z,3.07
2023-08-08T09:19:45.508Z,3.23
2023-08-08T09:22:15.572Z,3.73
2023-08-08T09:24:47.644Z,3.73
2023-08-08T09:27:16.380Z,3.43
2023-08-08T09:29:44.929Z,4.40
2023-08-08T09:32:16.865Z,3.40
2023-08-08T09:34:45.487Z,3.50
2023-08-08T09:37:14.660Z,2.80
2023-08-08T09:39:45.049Z,3.33
2023-08-08T09:42:13.414Z,3.47
2023-08-08T09:44:41.605Z,3.30
2023-08-08T09:47:15.142Z,3.57
2023-08-08T09:49:44.218Z,3.23
2023-08-08T09:52:13.260Z,3.17
2023-08-08T09:54:43.005Z,2.97
2023-08-08T09:57:15.734Z,2.33
2023-08-08T09:59:46.308Z,2.57
2023-08-08T10:02:17.314Z,2.87
2023-08-08T10:04:47.736Z,2.20
2023-08-08T10:07:16.414Z,2.03
2023-08-08T10:09:44.990Z,2.10
2023-08-08T10:12:18.344Z,2.67
2023-08-08T10:14:49.896Z,2.37
2023-08-08T10:17:22.430Z,2.73
2023-08-08T10:19:55.782Z,3.20
2023-08-08T10:22:26.551Z,3.20
2023-08-08T10:24:56.309Z,2.87
2023-08-08T10:27:34.993Z,2.80
2023-08-08T10:30:08.319Z,2.73
2023-08-08T10:32:44.142Z,2.97
2023-08-08T10:35:13.934Z,2.87
2023-08-08T10:37:42.846Z,2.90
2023-08-08T10:40:12.753Z,3.40
2023-08-08T10:42:46.515Z,3.17
2023-08-08T10:45:16.873Z,3.50
2023-08-08T10:47:47.320Z,2.80
2023-08-08T10:50:16.794Z,3.10
2023-08-08T10:52:56.737Z,2.97
2023-08-08T10:55:26.805Z,2.43
2023-08-08T10:58:01.734Z,2.17
2023-08-08T11:00:32.182Z,2.70
2023-08-08T11:03:01.647Z,2.67
2023-08-08T11:05:32.547Z,3.50
2023-08-08T11:08:01.907Z,2.97
2023-08-08T11:10:37.026Z,3.50
2023-08-08T11:13:08.940Z,3.53
2023-08-08T11:15:39.908Z,3.47
2023-08-08T11:18:09.565Z,3.23
2023-08-08T11:20:39.992Z,3.90
2023-08-08T11:23:12.202Z,4.03
2023-08-08T11:25:44.458Z,4.07
2023-08-08T11:28:14.848Z,4.57
2023-08-08T11:30:45.013Z,4.17
2023-08-08T11:33:18.949Z,5.17
2023-08-08T11:35:50.144Z,5.30
2023-08-08T11:38:19.948Z,5.87
2023-08-08T11:40:49.298Z,6.73
2023-08-08T11:43:19.048Z,5.73
2023-08-08T11:45:47.756Z,6.13
2023-08-08T11:48:16.009Z,6.33
2023-08-08T11:50:45.822Z,5.90
2023-08-08T11:53:14.430Z,6.37
2023-08-08T11:55:44.068Z,4.60
2023-08-08T11:58:16.965Z,5.00
2023-08-08T12:00:50.949Z,4.90
2023-08-08T12:03:20.200Z,4.40
2023-08-08T12:05:49.048Z,6.90
2023-08-08T12:08:23.196Z,4.00
2023-08-08T12:10:54.553Z,3.50
2023-08-08T12:13:23.790Z,4.73
2023-08-08T12:15:56.432Z,6.13
2023-08-08T12:18:24.891Z,6.10
2023-08-08T12:20:53.038Z,6.57
2023-08-08T12:23:21.618Z,5.20
2023-08-08T12:25:50.061Z,5.73
2023-08-08T12:28:18.229Z,6.07
2023-08-08T12:30:47.457Z,6.60
2023-08-08T12:33:17.314Z,6.07
2023-08-08T12:35:46.880Z,6.53
2023-08-08T12:38:15.758Z,6.10
2023-08-08T12:40:44.752Z,6.60
2023-08-08T12:43:18.664Z,6.40
2023-08-08T12:45:47.702Z,7.20
2023-08-08T12:48:17.885Z,4.97
2023-08-08T12:50:46.137Z,6.23
2023-08-08T12:53:14.871Z,6.13
2023-08-08T12:55:42.967Z,6.17
2023-08-08T12:58:11.224Z,5.10
2023-08-08T13:00:40.364Z,7.03
2023-08-08T13:03:08.941Z,5.80
2023-08-08T13:05:41.218Z,6.57
2023-08-08T13:08:10.057Z,5.83
2023-08-08T13:10:39.065Z,5.87
2023-08-08T13:13:07.252Z,5.80
2023-08-08T13:15:35.438Z,7.87
2023-08-08T13:18:03.694Z,6.60
2023-08-08T13:20:32.069Z,6.47
2023-08-08T13:23:05.275Z,5.37
2023-08-08T13:25:35.630Z,5.60
2023-08-08T13:28:04.344Z,5.77
2023-08-08T13:30:33.984Z,5.57
2023-08-08T13:33:03.377Z,6.00
2023-08-08T13:35:33.752Z,4.87
2023-08-08T13:38:03.978Z,6.07
2023-08-08T13:40:32.107Z,3.70
2023-08-08T13:43:00.504Z,6.57
2023-08-08T13:45:28.996Z,5.57
2023-08-08T13:47:57.350Z,6.57
2023-08-08T13:50:25.585Z,5.90
2023-08-08T13:52:54.522Z,5.50
2023-08-08T13:55:24.274Z,6.57
2023-08-08T13:57:52.422Z,6.27
2023-08-08T14:00:20.862Z,6.80
2023-08-08T14:02:49.194Z,4.10
2023-08-08T14:05:17.438Z,5.97
2023-08-08T14:07:45.711Z,5.70
2023-08-08T14:10:14.022Z,5.23
2023-08-08T14:12:44.016Z,5.23
2023-08-08T14:15:12.302Z,5.60
2023-08-08T14:17:40.778Z,5.93
2023-08-08T14:20:11.013Z,5.37
2023-08-08T14:22:39.379Z,5.47
2023-08-08T14:25:08.284Z,6.60
2023-08-08T14:27:36.508Z,5.00
2023-08-08T14:30:06.975Z,6.37
2023-08-08T14:32:35.406Z,6.07
2023-08-08T14:35:07.545Z,5.70
2023-08-08T14:37:35.765Z,6.53
2023-08-08T14:40:04.643Z,6.70
2023-08-08T14:42:36.214Z,5.20
2023-08-08T14:45:06.748Z,6.43
2023-08-08T14:47:35.305Z,5.20
2023-08-08T14:50:03.758Z,5.90
2023-08-08T14:52:32.381Z,2.70
2023-08-08T14:55:00.621Z,5.43
2023-08-08T14:57:28.797Z,3.70
2023-08-08T14:59:57.134Z,4.43
2023-08-08T15:02:26.823Z,5.50
2023-08-08T15:04:55.443Z,4.93
2023-08-08T15:07:23.850Z,4.40
2023-08-08T15:09:52.544Z,3.90
2023-08-08T15:12:21.139Z,4.10
2023-08-08T15:14:49.984Z,3.63
2023-08-08T15:17:18.566Z,4.70
2023-08-08T15:19:48.058Z,4.37
2023-08-08T15:22:16.624Z,3.83
2023-08-08T15:24:44.866Z,4.73
2023-08-08T15:27:13.137Z,4.33
2023-08-08T15:29:41.760Z,3.87
2023-08-08T15:32:10.044Z,4.83
2023-08-08T15:34:38.510Z,4.27
2023-08-08T15:37:08.537Z,4.80
2023-08-08T15:39:36.972Z,4.40
2023-08-08T15:42:05.724Z,4.70
2023-08-08T15:44:34.141Z,4.53
2023-08-08T15:47:02.823Z,4.70
2023-08-08T15:49:31.843Z,4.17
2023-08-08T15:52:00.533Z,2.47
2023-08-08T15:54:30.329Z,4.73
2023-08-08T15:56:59.022Z,6.07
2023-08-08T15:59:27.749Z,5.30
2023-08-08T16:01:56.094Z,6.27
2023-08-08T16:04:24.221Z,5.57
2023-08-08T16:06:52.697Z,6.80
2023-08-08T16:09:20.826Z,4.50
2023-08-08T16:11:51.743Z,4.90
2023-08-08T16:14:21.182Z,4.73
2023-08-08T16:16:49.310Z,4.73
2023-08-08T16:19:18.111Z,3.67
2023-08-08T16:21:46.392Z,4.53
2023-08-08T16:24:14.499Z,4.57
2023-08-08T16:26:42.568Z,3.63
2023-08-08T16:29:12.524Z,3.07
2023-08-08T16:31:41.044Z,3.53
2023-08-08T16:34:09.344Z,4.83
2023-08-08T16:36:38.694Z,3.13
2023-08-08T16:39:18.087Z,3.03
2023-08-08T16:41:47.403Z,4.30
2023-08-08T16:44:17.012Z,4.03
2023-08-08T16:46:45.277Z,5.43
2023-08-08T16:49:13.492Z,5.83
2023-08-08T16:51:41.876Z,3.47
2023-08-08T16:54:10.344Z,3.83
2023-08-08T16:56:39.098Z,4.10
2023-08-08T16:59:08.813Z,5.00
2023-08-08T17:01:42.610Z,6.30
2023-08-08T17:04:11.843Z,3.53
2023-08-08T17:06:40.828Z,2.53
2023-08-08T17:09:09.390Z,3.33
2023-08-08T17:11:38.569Z,3.37
2023-08-08T17:14:06.968Z,3.80
2023-08-08T17:16:35.787Z,4.87
2023-08-08T17:19:05.991Z,4.97
2023-08-08T17:21:34.343Z,4.17
2023-08-08T17:24:03.419Z,4.80
2023-08-08T17:26:32.082Z,4.80
2023-08-08T17:29:02.833Z,6.20
2023-08-08T17:31:31.393Z,5.70
2023-08-08T17:34:00.659Z,4.20
2023-08-08T17:36:33.261Z,5.53
2023-08-08T17:39:04.259Z,5.90
2023-08-08T17:41:32.901Z,3.53
2023-08-08T17:44:01.073Z,4.53
2023-08-08T17:46:29.312Z,3.70
2023-08-08T17:48:57.668Z,3.80
2023-08-08T17:51:26.108Z,4.70
2023-08-08T17:53:56.020Z,3.80
2023-08-08T17:56:24.301Z,4.07
2023-08-08T17:58:52.405Z,3.40
2023-08-08T18:01:20.573Z,2.27
2023-08-08T18:03:49.185Z,5.73
2023-08-08T18:06:17.355Z,5.07
2023-08-08T18:08:45.893Z,5.10
2023-08-08T18:11:16.049Z,4.13
2023-08-08T18:13:44.525Z,3.90
2023-08-08T18:16:12.877Z,4.83
2023-08-08T18:18:41.134Z,4.50
2023-08-08T18:21:09.268Z,3.97
2023-08-08T18:23:37.946Z,3.00
2023-08-08T18:26:07.088Z,5.27
2023-08-08T18:28:36.927Z,3.53
2023-08-08T18:31:05.069Z,3.77
2023-08-08T18:33:36.752Z,4.70
2023-08-08T18:36:05.789Z,3.10
2023-08-08T18:38:34.639Z,4.30
2023-08-08T18:41:03.358Z,4.50
2023-08-08T18:43:31.785Z,4.90
2023-08-08T18:46:01.672Z,4.20
2023-08-08T18:48:29.997Z,3.17
2023-08-08T18:50:58.438Z,2.40
2023-08-08T18:53:27.232Z,3.67
2023-08-08T18:55:55.749Z,3.60
2023-08-08T18:58:23.873Z,2.93
2023-08-08T19:00:52.705Z,3.57
2023-08-08T19:03:22.777Z,3.47
2023-08-08T19:05:50.999Z,2.80
2023-08-08T19:08:19.452Z,3.47
2023-08-08T19:10:48.295Z,3.57
2023-08-08T19:13:17.805Z,3.63
2023-08-08T19:15:46.246Z,3.83
2023-08-08T19:18:15.222Z,3.27
2023-08-08T19:20:46.300Z,4.93
2023-08-08T19:23:15.584Z,3.20
2023-08-08T19:25:43.951Z,2.90
2023-08-08T19:28:12.171Z,4.57
2023-08-08T19:30:40.747Z,4.37
2023-08-08T19:33:10.168Z,3.67
2023-08-08T19:35:38.428Z,3.60
2023-08-08T19:38:07.942Z,3.43
2023-08-08T19:40:39.427Z,2.40
2023-08-08T19:43:07.589Z,4.87
2023-08-08T19:45:35.697Z,4.83
2023-08-08T19:48:11.040Z,3.60
2023-08-08T19:50:41.939Z,3.63
2023-08-08T19:53:14.377Z,3.33
2023-08-08T19:55:43.733Z,3.87
2023-08-08T19:58:12.445Z,2.63
2023-08-08T20:00:40.787Z,3.03
2023-08-08T20:03:09.112Z,3.33
2023-08-08T20:05:37.488Z,3.60
2023-08-08T20:08:05.937Z,2.80
2023-08-08T20:10:36.593Z,3.73
2023-08-08T20:13:05.403Z,3.83
2023-08-08T20:15:33.940Z,3.93
2023-08-08T20:18:02.376Z,3.27
2023-08-08T20:20:30.632Z,5.03
2023-08-08T20:22:59.164Z,4.50
2023-08-08T20:25:27.413Z,3.40
2023-08-08T20:27:57.215Z,3.80
2023-08-08T20:30:25.875Z,3.10
2023-08-08T20:32:54.492Z,4.60
2023-08-08T20:35:23.501Z,4.03
2023-08-08T20:37:51.660Z,4.33
2023-08-08T20:40:19.965Z,4.70
2023-08-08T20:42:48.764Z,4.73
2023-08-08T20:45:19.650Z,4.43
2023-08-08T20:47:47.761Z,3.23
2023-08-08T20:50:17.002Z,3.73
2023-08-08T20:52:45.592Z,4.40
2023-08-08T20:55:15.088Z,4.67
2023-08-08T20:57:43.368Z,4.27
2023-08-08T21:00:12.942Z,4.50
2023-08-08T21:02:43.491Z,4.77
2023-08-08T21:05:12.204Z,4.03
2023-08-08T21:07:40.405Z,4.00
2023-08-08T21:10:09.690Z,3.87
2023-08-08T21:12:38.719Z,4.10
2023-08-08T21:15:08.237Z,3.27
2023-08-08T21:17:36.641Z,3.90
2023-08-08T21:20:07.652Z,3.63
2023-08-08T21:22:38.804Z,3.30
2023-08-08T21:25:08.543Z,3.03
2023-08-08T21:27:36.908Z,3.60
2023-08-08T21:30:08.305Z,3.47
2023-08-08T21:32:37.270Z,2.70
2023-08-08T21:35:08.062Z,2.87
2023-08-08T21:37:36.350Z,3.47
2023-08-08T21:40:04.916Z,3.13
2023-08-08T21:42:33.395Z,3.50
2023-08-08T21:45:01.736Z,4.07
2023-08-08T21:47:32.356Z,3.83
2023-08-08T21:50:03.537Z,3.93
2023-08-08T21:52:36.957Z,4.13
2023-08-08T21:55:06.079Z,3.60
2023-08-08T21:57:34.541Z,3.37
2023-08-08T22:00:06.304Z,4.10
2023-08-08T22:02:34.551Z,3.30
2023-08-08T22:05:06.162Z,3.70
2023-08-08T22:07:36.431Z,4.00
2023-08-08T22:10:04.942Z,3.93
2023-08-08T22:12:36.099Z,3.93
2023-08-08T22:15:04.866Z,2.83
2023-08-08T22:17:35.995Z,3.17
2023-08-08T22:20:04.471Z,4.00
2023-08-08T22:22:36.689Z,2.70
2023-08-08T22:25:07.165Z,3.13
2023-08-08T22:27:36.965Z,3.17
2023-08-08T22:30:06.337Z,2.80
2023-08-08T22:32:34.623Z,4.00
2023-08-08T22:35:07.596Z,4.07
2023-08-08T22:37:36.058Z,3.90
2023-08-08T22:40:06.369Z,3.57
2023-08-08T22:42:34.636Z,3.30
2023-08-08T22:45:03.253Z,3.97
2023-08-08T22:47:31.797Z,3.43
2023-08-08T22:50:00.622Z,3.03
2023-08-08T22:52:29.305Z,2.93
2023-08-08T22:55:00.901Z,2.97
2023-08-08T22:57:30.668Z,2.47
2023-08-08T22:59:58.841Z,3.80
2023-08-08T23:02:27.842Z,3.20
2023-08-08T23:04:56.187Z,4.37
2023-08-08T23:07:24.889Z,4.10
2023-08-08T23:09:53.033Z,3.77
2023-08-08T23:12:21.908Z,3.97
2023-08-08T23:14:51.477Z,4.03
2023-08-08T23:17:20.033Z,3.87
2023-08-08T23:19:48.423Z,3.37
2023-08-08T23:22:16.570Z,3.70
2023-08-08T23:24:46.312Z,3.33
2023-08-08T23:27:15.815Z,4.03
2023-08-08T23:29:44.132Z,4.17
2023-08-08T23:32:23.182Z,4.30
2023-08-08T23:34:54.019Z,3.43
2023-08-08T23:37:22.221Z,3.53
2023-08-08T23:39:50.695Z,3.73
2023-08-08T23:42:21.314Z,4.03
2023-08-08T23:44:49.577Z,3.70
2023-08-08T23:47:19.389Z,4.50
2023-08-08T23:49:50.498Z,3.23
2023-08-08T23:52:18.683Z,4.07
2023-08-08T23:54:48.685Z,3.13
2023-08-08T23:57:19.088Z,3.77
2023-08-08T23:59:47.258Z,3.10
